Time;durP1;ratioP1;P1;durP2;ratioP2;P2;SDS_P1;SDS_P2;PMS_P1;PMS_P2;Temp;Humidity;BMP_temperature;BMP_pressure;BME280_temperature;BME280_humidity;BME280_pressure;Samples;Min_cycle;Max_cycle;Signal;HPM_P1;HPM_P2
2024/04/24 00:01:27;;;;;;;15.98;12.35;;;;;;;;;;5383630;26;19992;-65
2024/04/24 00:03:52;;;;;;;17.50;12.43;;;;;;;;;;5352660;26;20431;-65
2024/04/24 00:06:18;;;;;;;15.95;12.90;;;;;;;;;;5383559;26;20460;-65
2024/04/24 00:08:43;;;;;;;17.40;12.98;;;;;;;;;;5383482;26;20000;-64
2024/04/24 00:11:08;;;;;;;16.75;13.27;;;;;;;;;;5383433;26;20423;-64
2024/04/24 00:13:34;;;;;;;18.25;13.07;;;;;;;;;;5383400;26;20000;-65
2024/04/24 00:15:59;;;;;;;19.67;14.10;;;;;;;;;;5383400;26;20073;-64
2024/04/24 00:18:25;;;;;;;18.73;13.50;;;;;;;;;;5383185;26;20005;-64
2024/04/24 00:20:53;;;;;;;19.10;13.70;;;;;;;;;;5352689;26;20008;-65
2024/04/24 00:23:19;;;;;;;22.15;14.70;;;;;;;;;;5383436;26;20004;-65
2024/04/24 00:25:44;;;;;;;19.02;14.73;;;;;;;;;;5352826;26;20034;-65
2024/04/24 00:28:09;;;;;;;21.00;15.05;;;;;;;;;;5383229;26;20011;-64
2024/04/24 00:30:35;;;;;;;20.33;15.38;;;;;;;;;;5383485;26;20032;-64
2024/04/24 00:33:00;;;;;;;23.63;15.43;;;;;;;;;;5383353;26;20015;-64
2024/04/24 00:35:26;;;;;;;22.52;16.20;;;;;;;;;;5383364;26;19992;-64
2024/04/24 00:37:51;;;;;;;24.67;14.95;;;;;;;;;;5383384;26;20008;-64
2024/04/24 00:40:16;;;;;;;21.98;15.65;;;;;;;;;;5380453;26;20467;-64
2024/04/24 00:42:42;;;;;;;21.92;15.50;;;;;;;;;;5378984;26;20085;-64
2024/04/24 00:45:07;;;;;;;20.80;14.98;;;;;;;;;;5348462;26;20039;-64
2024/04/24 00:47:33;;;;;;;20.67;15.25;;;;;;;;;;5379132;26;20447;-63
2024/04/24 00:49:59;;;;;;;20.33;14.93;;;;;;;;;;5379339;26;20002;-63
2024/04/24 00:52:25;;;;;;;20.50;15.00;;;;;;;;;;5379311;26;20089;-64
2024/04/24 00:54:50;;;;;;;19.10;14.65;;;;;;;;;;5378895;26;20443;-63
2024/04/24 00:57:16;;;;;;;23.05;14.25;;;;;;;;;;5379035;26;20095;-63
2024/04/24 00:59:41;;;;;;;18.85;14.07;;;;;;;;;;5378909;26;20012;-64
2024/04/24 01:02:07;;;;;;;19.00;13.93;;;;;;;;;;5382513;26;20011;-64
2024/04/24 01:04:34;;;;;;;20.88;13.63;;;;;;;;;;5351366;26;20007;-64
2024/04/24 01:07:00;;;;;;;22.60;13.98;;;;;;;;;;5384378;26;20000;-64
2024/04/24 01:09:32;;;;;;;21.00;14.70;;;;;;;;;;5385452;26;20400;-64
2024/04/24 01:11:58;;;;;;;19.55;14.25;;;;;;;;;;5354163;26;20000;-64
2024/04/24 01:14:33;;;;;;;22.35;14.15;;;;;;;;;;5386273;26;20000;-64
2024/04/24 01:17:08;;;;;;;20.52;13.93;;;;;;;;;;5386021;26;20000;-64
2024/04/24 01:19:33;;;;;;;19.92;14.05;;;;;;;;;;5385927;26;20348;-58
2024/04/24 01:21:59;;;;;;;21.48;13.40;;;;;;;;;;5385863;26;20003;-63
2024/04/24 01:24:28;;;;;;;19.40;14.05;;;;;;;;;;5394519;21;20004;-58
2024/04/24 01:26:55;;;;;;;20.65;13.77;;;;;;;;;;5400526;21;20005;-63
2024/04/24 01:29:20;;;;;;;18.30;12.95;;;;;;;;;;5405142;21;20008;-64
2024/04/24 01:32:04;;;;;;;20.13;12.93;;;;;;;;;;5420937;21;20376;31
2024/04/24 01:34:30;;;;;;;18.35;13.13;;;;;;;;;;5398223;21;20004;-64
2024/04/24 01:36:55;;;;;;;18.27;13.40;;;;;;;;;;5385624;26;20057;-64
2024/04/24 01:39:21;;;;;;;17.42;12.95;;;;;;;;;;5385228;26;19988;-64
2024/04/24 01:41:46;;;;;;;19.30;12.38;;;;;;;;;;5385734;26;19993;-64
2024/04/24 01:44:12;;;;;;;17.75;12.45;;;;;;;;;;5385546;26;20002;-64
2024/04/24 01:46:37;;;;;;;16.67;11.63;;;;;;;;;;5385463;26;20008;-64
2024/04/24 01:49:02;;;;;;;17.70;12.38;;;;;;;;;;5385522;26;20000;-64
2024/04/24 01:51:28;;;;;;;16.88;11.82;;;;;;;;;;5385434;26;20068;-64
2024/04/24 01:53:55;;;;;;;14.70;12.00;;;;;;;;;;5385282;26;19996;-64
2024/04/24 01:56:21;;;;;;;15.88;11.98;;;;;;;;;;5385345;26;20009;-65
2024/04/24 01:58:46;;;;;;;16.55;12.65;;;;;;;;;;5385299;26;20049;-64
2024/04/24 02:01:12;;;;;;;19.23;13.05;;;;;;;;;;5385340;26;19992;-64
2024/04/24 02:03:37;;;;;;;19.15;12.52;;;;;;;;;;5385236;26;20000;-64
2024/04/24 02:06:03;;;;;;;17.05;12.77;;;;;;;;;;5385230;26;20028;-64
2024/04/24 02:08:28;;;;;;;17.38;12.45;;;;;;;;;;5385218;26;20069;-64
2024/04/24 02:10:54;;;;;;;16.30;12.27;;;;;;;;;;5384758;26;20019;-64
2024/04/24 02:13:19;;;;;;;15.85;11.98;;;;;;;;;;5383935;26;20003;-64
2024/04/24 02:15:44;;;;;;;19.85;12.55;;;;;;;;;;5385049;26;19992;-64
2024/04/24 02:18:10;;;;;;;16.33;12.05;;;;;;;;;;5384765;26;20003;-64
2024/04/24 02:20:36;;;;;;;14.88;12.30;;;;;;;;;;5384999;26;20509;-64
2024/04/24 02:23:05;;;;;;;16.30;12.18;;;;;;;;;;5385016;26;19996;-64
2024/04/24 02:25:33;;;;;;;21.65;14.68;;;;;;;;;;5385172;26;20000;-65
2024/04/24 02:27:59;;;;;;;16.15;12.80;;;;;;;;;;5385567;26;20008;-64
2024/04/24 02:30:24;;;;;;;21.98;13.57;;;;;;;;;;5384790;26;19996;-64
2024/04/24 02:32:50;;;;;;;17.45;12.77;;;;;;;;;;5385168;26;20000;-64
2024/04/24 02:35:15;;;;;;;19.63;13.93;;;;;;;;;;5353604;26;20070;-64
2024/04/24 02:37:40;;;;;;;17.95;13.07;;;;;;;;;;5385010;26;19993;-65
2024/04/24 02:40:06;;;;;;;18.17;13.38;;;;;;;;;;5354100;26;20451;-65
2024/04/24 02:42:31;;;;;;;23.23;14.10;;;;;;;;;;5385274;26;20419;-64
2024/04/24 02:44:57;;;;;;;18.05;13.27;;;;;;;;;;5353671;26;19996;-64
2024/04/24 02:47:22;;;;;;;17.48;13.52;;;;;;;;;;5384617;26;19992;-64
2024/04/24 02:49:48;;;;;;;18.50;13.70;;;;;;;;;;5384671;26;20004;-64
2024/04/24 02:52:13;;;;;;;18.75;13.23;;;;;;;;;;5384498;26;20004;-64
2024/04/24 02:54:38;;;;;;;23.27;13.65;;;;;;;;;;5384746;26;20438;-64
2024/04/24 02:57:04;;;;;;;19.42;13.10;;;;;;;;;;5384476;26;20000;-64
2024/04/24 02:59:29;;;;;;;19.40;13.30;;;;;;;;;;5384554;26;20008;-64
2024/04/24 03:01:54;;;;;;;19.00;13.35;;;;;;;;;;5353447;26;20431;-64
2024/04/24 03:04:20;;;;;;;18.02;13.05;;;;;;;;;;5353538;26;20429;-64
2024/04/24 03:06:45;;;;;;;17.73;12.50;;;;;;;;;;5384380;26;20439;-64
2024/04/24 03:09:10;;;;;;;17.65;12.48;;;;;;;;;;5353052;26;20025;-63
2024/04/24 03:11:39;;;;;;;18.60;12.38;;;;;;;;;;5384590;26;20004;-63
2024/04/24 03:14:05;;;;;;;17.77;12.27;;;;;;;;;;5384261;26;20007;-63
2024/04/24 03:16:31;;;;;;;15.88;12.27;;;;;;;;;;5353185;26;20331;-63
2024/04/24 03:18:57;;;;;;;17.98;12.45;;;;;;;;;;5384276;26;20032;-63
2024/04/24 03:21:22;;;;;;;18.33;12.18;;;;;;;;;;5384400;26;20004;-63
2024/04/24 03:23:47;;;;;;;18.15;12.70;;;;;;;;;;5383526;26;20396;-63
2024/04/24 03:26:14;;;;;;;18.77;12.45;;;;;;;;;;5384031;26;20012;-63
2024/04/24 03:28:39;;;;;;;19.40;12.30;;;;;;;;;;5384114;26;20007;-63
2024/04/24 03:31:05;;;;;;;18.65;13.55;;;;;;;;;;5384319;26;19996;-63
2024/04/24 03:33:30;;;;;;;20.20;12.57;;;;;;;;;;5383603;26;20094;-64
2024/04/24 03:35:56;;;;;;;19.30;13.13;;;;;;;;;;5383523;26;20011;-64
2024/04/24 03:38:21;;;;;;;17.42;13.80;;;;;;;;;;5384044;26;19996;-64
2024/04/24 03:40:46;;;;;;;15.52;12.13;;;;;;;;;;5384056;26;20423;-64
2024/04/24 03:43:12;;;;;;;18.83;13.20;;;;;;;;;;5383543;26;20003;-64
2024/04/24 03:45:37;;;;;;;17.67;12.38;;;;;;;;;;5383709;26;20004;-58
2024/04/24 03:48:03;;;;;;;18.08;13.00;;;;;;;;;;5351031;26;20010;-57
2024/04/24 03:50:28;;;;;;;16.05;12.48;;;;;;;;;;5379387;26;20007;-58
2024/04/24 03:52:54;;;;;;;18.38;13.32;;;;;;;;;;5352088;26;20004;-58
2024/04/24 03:55:19;;;;;;;21.55;15.35;;;;;;;;;;5382468;26;20002;-58
2024/04/24 03:57:45;;;;;;;21.33;16.58;;;;;;;;;;5352784;26;20322;-58
2024/04/24 04:00:10;;;;;;;20.42;13.55;;;;;;;;;;5383897;26;20339;-58
2024/04/24 04:02:40;;;;;;;15.77;12.55;;;;;;;;;;5352652;26;20046;-58
2024/04/24 04:05:05;;;;;;;18.60;12.43;;;;;;;;;;5383168;26;19992;-58
2024/04/24 04:07:31;;;;;;;17.17;13.00;;;;;;;;;;5383301;26;20435;-58
2024/04/24 04:09:57;;;;;;;16.70;12.65;;;;;;;;;;5383352;26;20000;-58
2024/04/24 04:12:23;;;;;;;16.25;12.65;;;;;;;;;;5382884;26;20784;-57
2024/04/24 04:14:48;;;;;;;17.15;11.80;;;;;;;;;;5383019;26;20320;-60
2024/04/24 04:17:14;;;;;;;17.58;13.18;;;;;;;;;;5383271;26;20062;-59
2024/04/24 04:19:39;;;;;;;16.42;12.05;;;;;;;;;;5383113;26;20028;-59
2024/04/24 04:22:04;;;;;;;19.67;13.38;;;;;;;;;;5382721;26;20000;-60
2024/04/24 04:24:30;;;;;;;17.08;13.30;;;;;;;;;;5383144;26;20000;-60
2024/04/24 04:26:55;;;;;;;17.95;12.75;;;;;;;;;;5382836;26;20074;-60
2024/04/24 04:29:20;;;;;;;16.85;12.85;;;;;;;;;;5382971;26;20000;-59
2024/04/24 04:31:46;;;;;;;16.10;12.43;;;;;;;;;;5382889;26;20000;-58
2024/04/24 04:34:11;;;;;;;12.98;11.40;;;;;;;;;;5381936;26;20004;-58
2024/04/24 04:36:37;;;;;;;15.20;11.93;;;;;;;;;;5382413;26;20011;-59
2024/04/24 04:39:03;;;;;;;15.80;11.75;;;;;;;;;;5383033;26;20000;-58
2024/04/24 04:41:29;;;;;;;12.70;10.63;;;;;;;;;;5383004;26;20000;-59
2024/04/24 04:43:56;;;;;;;14.95;12.27;;;;;;;;;;5383349;26;19996;-59
2024/04/24 04:46:22;;;;;;;14.93;11.07;;;;;;;;;;5381912;26;20000;-59
2024/04/24 04:48:48;;;;;;;15.88;11.25;;;;;;;;;;5381853;26;20014;-59
2024/04/24 04:51:13;;;;;;;16.13;11.35;;;;;;;;;;5382535;26;20464;-59
2024/04/24 04:53:40;;;;;;;18.55;12.52;;;;;;;;;;5351101;26;20077;-58
2024/04/24 04:56:05;;;;;;;15.52;10.95;;;;;;;;;;5381109;26;20008;-59
2024/04/24 04:58:31;;;;;;;12.90;10.70;;;;;;;;;;5381869;26;20421;-59
2024/04/24 05:00:56;;;;;;;12.90;9.93;;;;;;;;;;5381686;26;19996;-58
2024/04/24 05:03:22;;;;;;;11.48;9.93;;;;;;;;;;5350684;26;19996;-59
2024/04/24 05:05:47;;;;;;;16.42;12.27;;;;;;;;;;5381545;26;20008;-59
2024/04/24 05:08:12;;;;;;;19.45;15.70;;;;;;;;;;5381762;26;19992;-58
2024/04/24 05:10:38;;;;;;;19.48;14.25;;;;;;;;;;5381743;26;20070;-58
2024/04/24 05:13:03;;;;;;;12.70;10.23;;;;;;;;;;5382334;26;20000;-59
2024/04/24 05:15:28;;;;;;;11.38;10.13;;;;;;;;;;5381978;26;20066;-59
2024/04/24 05:17:54;;;;;;;16.40;12.30;;;;;;;;;;5378378;26;19992;-58
2024/04/24 05:20:19;;;;;;;18.75;14.25;;;;;;;;;;5377542;26;20458;-59
2024/04/24 05:23:00;;;;;;;14.18;11.57;;;;;;;;;;5378277;26;20000;-59
2024/04/24 05:25:28;;;;;;;13.82;10.80;;;;;;;;;;5378687;26;20474;-58
2024/04/24 05:30:37;;;;;;;12.93;11.60;;;;;;;;;;5347396;26;20012;-59
2024/04/24 05:33:02;;;;;;;12.57;10.68;;;;;;;;;;5319318;26;20040;-59
2024/04/24 05:35:29;;;;;;;12.32;10.90;;;;;;;;;;5378299;26;20023;-59
2024/04/24 05:37:54;;;;;;;14.15;11.52;;;;;;;;;;5347377;26;20001;-58
2024/04/24 05:40:20;;;;;;;16.23;12.93;;;;;;;;;;5378279;26;20003;-59
2024/04/24 05:42:45;;;;;;;15.13;12.82;;;;;;;;;;5378396;26;20454;-59
2024/04/24 05:45:10;;;;;;;11.98;10.55;;;;;;;;;;5347159;26;19996;-59
2024/04/24 05:47:36;;;;;;;13.30;10.63;;;;;;;;;;5381272;26;19992;-59
2024/04/24 05:50:02;;;;;;;12.50;9.93;;;;;;;;;;5382664;26;20020;-59
2024/04/24 05:52:27;;;;;;;12.32;10.60;;;;;;;;;;5354446;26;20315;-59
2024/04/24 05:54:52;;;;;;;29.08;19.80;;;;;;;;;;5354435;26;20015;-59
2024/04/24 05:57:18;;;;;;;16.50;12.48;;;;;;;;;;5385427;26;20377;-58
2024/04/24 05:59:43;;;;;;;95.20;52.17;;;;;;;;;;5385297;26;20003;-59
2024/04/24 06:02:08;;;;;;;30.40;19.08;;;;;;;;;;5385315;26;20000;-59
2024/04/24 06:04:34;;;;;;;58.58;32.05;;;;;;;;;;5385259;26;20489;-58
2024/04/24 06:06:59;;;;;;;83.03;37.30;;;;;;;;;;5385263;26;20003;-59
2024/04/24 06:09:24;;;;;;;32.45;18.83;;;;;;;;;;5385231;26;20003;-59
2024/04/24 06:11:50;;;;;;;36.22;20.33;;;;;;;;;;5385236;26;20428;-59
2024/04/24 06:14:15;;;;;;;38.28;19.65;;;;;;;;;;5385043;26;20012;-59
2024/04/24 06:16:40;;;;;;;14.60;11.07;;;;;;;;;;5385142;26;19995;-59
2024/04/24 06:19:06;;;;;;;19.30;13.63;;;;;;;;;;5385047;26;19992;-59
2024/04/24 06:21:31;;;;;;;22.77;14.20;;;;;;;;;;5385069;26;20315;-58
2024/04/24 06:23:57;;;;;;;19.20;12.80;;;;;;;;;;5385019;26;19992;-58
2024/04/24 06:26:24;;;;;;;17.13;11.85;;;;;;;;;;5353958;26;19992;-59
2024/04/24 06:28:49;;;;;;;38.38;21.45;;;;;;;;;;5384924;26;20007;-59
2024/04/24 06:31:15;;;;;;;33.70;18.98;;;;;;;;;;5385136;26;19992;-59
2024/04/24 06:33:40;;;;;;;14.32;9.60;;;;;;;;;;5384789;26;20004;-59
2024/04/24 06:36:06;;;;;;;16.65;11.52;;;;;;;;;;5384674;26;20070;-59
2024/04/24 06:38:31;;;;;;;24.30;15.02;;;;;;;;;;5385126;26;20077;-59
2024/04/24 06:40:56;;;;;;;23.05;12.02;;;;;;;;;;5385067;26;20000;-59
2024/04/24 06:43:22;;;;;;;31.30;13.23;;;;;;;;;;5385156;26;20573;-59
2024/04/24 06:45:47;;;;;;;30.63;13.75;;;;;;;;;;5385047;26;19992;-59
2024/04/24 06:48:12;;;;;;;23.85;11.63;;;;;;;;;;5385054;26;20002;-58
2024/04/24 06:50:38;;;;;;;27.13;14.93;;;;;;;;;;5384990;26;20068;-59
2024/04/24 06:53:04;;;;;;;19.27;12.63;;;;;;;;;;5384504;26;20000;-59
2024/04/24 06:55:29;;;;;;;27.75;12.25;;;;;;;;;;5384789;26;20011;-59
2024/04/24 06:57:55;;;;;;;22.08;11.23;;;;;;;;;;5383859;26;20000;-58
2024/04/24 07:00:20;;;;;;;14.57;10.70;;;;;;;;;;5384831;26;20069;-58
2024/04/24 07:02:45;;;;;;;16.10;9.30;;;;;;;;;;5384810;26;20418;-59
2024/04/24 07:05:11;;;;;;;11.63;8.35;;;;;;;;;;5384489;26;20323;-59
2024/04/24 07:07:36;;;;;;;15.32;9.65;;;;;;;;;;5384382;26;20008;-59
2024/04/24 07:10:02;;;;;;;11.50;8.57;;;;;;;;;;5384344;26;19996;-59
2024/04/24 07:12:27;;;;;;;18.08;10.43;;;;;;;;;;5384334;26;20079;-58
2024/04/24 07:14:52;;;;;;;21.40;11.18;;;;;;;;;;5384293;26;19996;-59
2024/04/24 07:17:17;;;;;;;22.77;11.07;;;;;;;;;;5353528;26;20015;-59
2024/04/24 07:19:43;;;;;;;21.20;11.30;;;;;;;;;;5384228;26;20007;-59
2024/04/24 07:22:08;;;;;;;19.20;10.23;;;;;;;;;;5384440;26;19999;-59
2024/04/24 07:24:34;;;;;;;13.07;9.68;;;;;;;;;;5384199;26;19996;-59
2024/04/24 07:26:59;;;;;;;11.68;8.27;;;;;;;;;;5384155;26;20004;-59
2024/04/24 07:29:24;;;;;;;10.43;9.02;;;;;;;;;;5384071;26;20001;-59
2024/04/24 07:31:50;;;;;;;11.05;8.75;;;;;;;;;;5384057;26;20006;-59
2024/04/24 07:34:16;;;;;;;9.00;7.57;;;;;;;;;;5383854;26;20014;-59
2024/04/24 07:36:41;;;;;;;13.65;9.32;;;;;;;;;;5353067;26;19996;-59
2024/04/24 07:39:06;;;;;;;70.00;31.98;;;;;;;;;;5384247;26;19992;-59
2024/04/24 07:41:32;;;;;;;69.97;29.05;;;;;;;;;;5384270;26;20003;-59
2024/04/24 07:43:57;;;;;;;78.07;31.52;;;;;;;;;;5383972;26;19996;-58
2024/04/24 07:46:31;;;;;;;63.58;29.33;;;;;;;;;;5353384;26;20007;-58
2024/04/24 07:48:57;;;;;;;30.70;19.75;;;;;;;;;;5384137;26;19996;-59
2024/04/24 07:51:22;;;;;;;22.92;17.45;;;;;;;;;;5384022;26;20103;-59
2024/04/24 07:53:47;;;;;;;15.73;13.48;;;;;;;;;;5383995;26;20065;-59
2024/04/24 07:56:13;;;;;;;14.63;10.88;;;;;;;;;;5384011;26;19992;-59
2024/04/24 07:58:38;;;;;;;13.45;11.90;;;;;;;;;;5384070;26;20322;-59
2024/04/24 08:01:04;;;;;;;16.88;11.70;;;;;;;;;;5383990;26;20061;-59
2024/04/24 08:03:30;;;;;;;22.48;15.23;;;;;;;;;;5383540;26;19996;-59
2024/04/24 08:05:55;;;;;;;10.88;8.52;;;;;;;;;;5383595;26;19997;-59
2024/04/24 08:08:20;;;;;;;12.57;9.73;;;;;;;;;;5383618;26;20021;-59
2024/04/24 08:10:46;;;;;;;11.48;10.27;;;;;;;;;;5383398;26;19996;-59
2024/04/24 08:13:11;;;;;;;14.85;11.55;;;;;;;;;;5352577;26;20000;-59
2024/04/24 08:15:36;;;;;;;11.77;9.57;;;;;;;;;;5383365;26;20505;-59
2024/04/24 08:18:02;;;;;;;8.73;6.85;;;;;;;;;;5383517;26;20101;-59
2024/04/24 08:20:27;;;;;;;11.95;9.20;;;;;;;;;;5383417;26;20361;-59
2024/04/24 08:22:53;;;;;;;11.65;9.68;;;;;;;;;;5383353;26;19992;-59
2024/04/24 08:25:18;;;;;;;11.18;9.68;;;;;;;;;;5352421;26;20047;-59
2024/04/24 08:27:43;;;;;;;12.10;10.32;;;;;;;;;;5383315;26;20007;-58
2024/04/24 08:30:10;;;;;;;12.13;10.45;;;;;;;;;;5383212;26;20019;-59
2024/04/24 08:32:36;;;;;;;11.38;9.63;;;;;;;;;;5382648;26;20325;-59
2024/04/24 08:35:02;;;;;;;12.05;9.90;;;;;;;;;;5383101;26;20008;-59
2024/04/24 08:37:27;;;;;;;10.68;9.60;;;;;;;;;;5351926;26;20354;-59
2024/04/24 08:39:52;;;;;;;11.18;9.07;;;;;;;;;;5383081;26;20008;-59
2024/04/24 08:42:18;;;;;;;12.07;9.32;;;;;;;;;;5383145;26;20427;-59
2024/04/24 08:44:44;;;;;;;10.95;9.05;;;;;;;;;;5352271;26;20322;-59
2024/04/24 08:47:10;;;;;;;12.90;9.40;;;;;;;;;;5383020;26;20020;-58
2024/04/24 08:49:36;;;;;;;11.00;8.80;;;;;;;;;;5382968;26;20072;-59
2024/04/24 08:52:02;;;;;;;10.23;9.18;;;;;;;;;;5382870;26;20004;-59
2024/04/24 08:54:28;;;;;;;13.52;8.90;;;;;;;;;;5382782;26;20037;-59
2024/04/24 08:56:56;;;;;;;11.05;8.40;;;;;;;;;;5382856;26;20001;-59
2024/04/24 08:59:23;;;;;;;9.30;7.82;;;;;;;;;;5382768;26;20010;-59
2024/04/24 09:02:04;;;;;;;9.45;7.45;;;;;;;;;;5382282;26;20004;-59
2024/04/24 09:04:30;;;;;;;9.90;8.70;;;;;;;;;;5382722;26;20493;-59
2024/04/24 09:06:55;;;;;;;9.45;8.40;;;;;;;;;;5382692;26;19996;-59
2024/04/24 09:09:21;;;;;;;9.77;8.75;;;;;;;;;;5382675;26;20304;-59
2024/04/24 09:11:47;;;;;;;8.95;6.50;;;;;;;;;;5382608;26;20012;-59
2024/04/24 09:14:14;;;;;;;11.27;9.25;;;;;;;;;;5351858;26;20451;-59
2024/04/24 09:16:41;;;;;;;14.02;9.10;;;;;;;;;;5382477;26;19996;-59
2024/04/24 09:19:06;;;;;;;8.95;5.82;;;;;;;;;;5382386;26;20542;-59
2024/04/24 09:21:32;;;;;;;8.32;7.05;;;;;;;;;;5383678;26;19992;-59
2024/04/24 09:23:57;;;;;;;8.38;7.38;;;;;;;;;;5385788;26;20000;-59
2024/04/24 09:26:23;;;;;;;7.50;6.80;;;;;;;;;;5385927;26;20011;-59
2024/04/24 09:28:50;;;;;;;6.07;5.47;;;;;;;;;;5354854;26;20003;-59
2024/04/24 09:31:16;;;;;;;52.20;37.72;;;;;;;;;;5385795;26;20004;-59
2024/04/24 09:33:41;;;;;;;22.50;18.20;;;;;;;;;;5354890;26;20011;-59
2024/04/24 09:36:07;;;;;;;19.98;18.02;;;;;;;;;;5385896;26;19993;-59
2024/04/24 09:38:33;;;;;;;7.85;6.95;;;;;;;;;;5385389;26;20054;-59
2024/04/24 09:40:59;;;;;;;8.70;7.40;;;;;;;;;;5354488;26;20427;-59
2024/04/24 09:43:29;;;;;;;9.57;7.70;;;;;;;;;;5354547;26;20000;-59
2024/04/24 09:45:55;;;;;;;7.95;7.18;;;;;;;;;;5385545;26;19996;-59
2024/04/24 09:48:22;;;;;;;7.70;5.82;;;;;;;;;;5385362;26;20308;-59
2024/04/24 09:50:50;;;;;;;8.77;7.85;;;;;;;;;;5354176;26;20004;-59
2024/04/24 09:53:19;;;;;;;6.47;5.88;;;;;;;;;;5385460;26;19996;-59
2024/04/24 09:55:59;;;;;;;7.72;7.03;;;;;;;;;;5354097;26;20360;-59
2024/04/24 09:58:26;;;;;;;7.13;6.20;;;;;;;;;;5385105;26;20007;-59
2024/04/24 10:00:52;;;;;;;9.98;8.88;;;;;;;;;;5385336;26;20007;-59
2024/04/24 10:03:18;;;;;;;8.68;7.78;;;;;;;;;;5385603;26;20001;-59
2024/04/24 10:05:45;;;;;;;8.20;7.35;;;;;;;;;;5385313;26;20000;-59
2024/04/24 10:08:13;;;;;;;7.53;6.72;;;;;;;;;;5385320;26;19996;-59
2024/04/24 10:10:41;;;;;;;11.88;10.60;;;;;;;;;;5385185;26;20443;-59
2024/04/24 10:13:07;;;;;;;9.30;8.40;;;;;;;;;;5385183;26;20011;-59
2024/04/24 10:15:53;;;;;;;8.35;7.55;;;;;;;;;;5354112;26;20182;-66
2024/04/24 10:18:19;;;;;;;16.17;8.55;;;;;;;;;;5406217;21;20036;-66
2024/04/24 10:20:45;;;;;;;8.40;7.50;;;;;;;;;;5384798;26;20424;-66
2024/04/24 10:23:11;;;;;;;8.13;5.82;;;;;;;;;;5411039;21;20008;-66
2024/04/24 10:25:47;;;;;;;7.45;6.68;;;;;;;;;;5386924;21;20004;-59
2024/04/24 10:28:13;;;;;;;18.75;11.63;;;;;;;;;;5398632;21;20452;-66
2024/04/24 10:30:39;;;;;;;6.90;6.20;;;;;;;;;;5385302;26;20011;-59
2024/04/24 10:33:06;;;;;;;4.90;4.50;;;;;;;;;;5353164;26;19996;-59
2024/04/24 10:35:32;;;;;;;6.95;6.35;;;;;;;;;;5385124;26;20035;-66
2024/04/24 10:37:57;;;;;;;6.10;5.32;;;;;;;;;;5325495;26;20066;-66
2024/04/24 10:40:23;;;;;;;6.50;4.95;;;;;;;;;;5385159;26;20304;-66
2024/04/24 10:42:49;;;;;;;6.32;5.68;;;;;;;;;;5385301;26;20011;-66
2024/04/24 10:45:16;;;;;;;5.93;5.35;;;;;;;;;;5384824;26;20431;-66
2024/04/24 10:47:41;;;;;;;29.98;18.90;;;;;;;;;;5385115;26;20007;-66
2024/04/24 10:50:13;;;;;;;36.53;25.75;;;;;;;;;;5385016;26;20004;-66
2024/04/24 10:52:44;;;;;;;7.40;5.15;;;;;;;;;;5353966;26;20045;-66
2024/04/24 10:55:14;;;;;;;4.25;3.92;;;;;;;;;;5384786;26;20334;-66
2024/04/24 10:57:44;;;;;;;5.88;5.32;;;;;;;;;;5384914;26;20052;-66
2024/04/24 11:00:15;;;;;;;9.07;5.28;;;;;;;;;;5384763;26;20000;-66
2024/04/24 11:02:41;;;;;;;6.03;5.43;;;;;;;;;;5385141;26;20011;-66
2024/04/24 11:05:06;;;;;;;5.90;5.30;;;;;;;;;;5384799;26;20000;-66
2024/04/24 11:07:32;;;;;;;5.05;4.60;;;;;;;;;;5384519;26;20000;-66
2024/04/24 11:09:57;;;;;;;6.75;6.05;;;;;;;;;;5384121;26;20463;-66
2024/04/24 11:12:23;;;;;;;4.68;4.28;;;;;;;;;;5384139;26;20032;-66
2024/04/24 11:14:49;;;;;;;6.80;5.22;;;;;;;;;;5384571;26;20015;-66
2024/04/24 11:17:15;;;;;;;9.60;7.63;;;;;;;;;;5384313;26;20462;-66
2024/04/24 11:19:41;;;;;;;5.70;5.10;;;;;;;;;;5384311;26;20015;-66
2024/04/24 11:22:07;;;;;;;4.55;3.90;;;;;;;;;;5384308;26;20327;-66
2024/04/24 11:24:32;;;;;;;5.63;4.47;;;;;;;;;;5384258;26;20036;-66
2024/04/24 11:26:58;;;;;;;6.47;5.50;;;;;;;;;;5383967;26;19996;-66
2024/04/24 11:29:24;;;;;;;5.47;4.78;;;;;;;;;;5384505;26;20000;-66
2024/04/24 11:31:50;;;;;;;6.10;5.55;;;;;;;;;;5384389;26;20077;-66
2024/04/24 11:34:16;;;;;;;7.60;4.93;;;;;;;;;;5353602;26;20000;-66
2024/04/24 11:36:42;;;;;;;6.13;5.60;;;;;;;;;;5384428;26;20011;-66
2024/04/24 11:39:08;;;;;;;5.60;5.10;;;;;;;;;;5384360;26;20024;-66
2024/04/24 11:41:36;;;;;;;6.53;5.82;;;;;;;;;;5384003;26;20027;-66
2024/04/24 11:44:06;;;;;;;6.88;6.22;;;;;;;;;;5352418;26;20446;-66
2024/04/24 11:46:31;;;;;;;6.25;5.65;;;;;;;;;;5383982;26;20533;-66
2024/04/24 11:48:58;;;;;;;5.40;4.93;;;;;;;;;;5383863;26;20000;-66
2024/04/24 11:51:24;;;;;;;5.80;5.30;;;;;;;;;;5383865;26;20011;-66
2024/04/24 11:53:50;;;;;;;5.05;4.55;;;;;;;;;;5353342;26;20300;-66
2024/04/24 11:56:15;;;;;;;5.90;5.30;;;;;;;;;;5383996;26;20011;-66
2024/04/24 11:58:41;;;;;;;5.55;5.05;;;;;;;;;;5383985;26;20070;-66
2024/04/24 12:01:07;;;;;;;6.35;5.75;;;;;;;;;;5383840;26;20007;-66
2024/04/24 12:03:33;;;;;;;6.25;5.68;;;;;;;;;;5353081;26;20000;-66
2024/04/24 12:06:01;;;;;;;6.57;5.70;;;;;;;;;;5383665;26;20000;-66
2024/04/24 12:08:27;;;;;;;9.00;7.57;;;;;;;;;;5352719;26;19992;-66
2024/04/24 12:10:59;;;;;;;16.48;11.18;;;;;;;;;;5383612;26;20000;-66
2024/04/24 12:13:25;;;;;;;6.13;5.60;;;;;;;;;;5383750;26;20008;-66
2024/04/24 12:15:57;;;;;;;5.60;5.10;;;;;;;;;;5383440;26;20007;-66
2024/04/24 12:18:23;;;;;;;5.60;5.13;;;;;;;;;;5383520;26;20011;-66
2024/04/24 12:20:49;;;;;;;7.60;5.47;;;;;;;;;;5352466;26;19996;-66
2024/04/24 12:23:17;;;;;;;7.10;5.72;;;;;;;;;;5383673;26;20004;-66
2024/04/24 12:25:43;;;;;;;8.10;6.53;;;;;;;;;;5383434;26;19996;-66
2024/04/24 12:28:09;;;;;;;6.10;5.60;;;;;;;;;;5352341;26;20000;-66
2024/04/24 12:30:34;;;;;;;8.18;6.78;;;;;;;;;;5352807;26;20116;-66
2024/04/24 12:32:59;;;;;;;7.63;6.93;;;;;;;;;;5383542;26;20004;-66
2024/04/24 12:35:25;;;;;;;6.97;5.97;;;;;;;;;;5383447;26;20000;-66
2024/04/24 12:37:51;;;;;;;8.02;6.25;;;;;;;;;;5383277;26;20007;-66
2024/04/24 12:40:16;;;;;;;8.10;5.80;;;;;;;;;;5383431;26;20043;-66
2024/04/24 12:42:42;;;;;;;7.40;6.70;;;;;;;;;;5352652;26;19997;-66
2024/04/24 12:45:08;;;;;;;8.52;6.85;;;;;;;;;;5383342;26;20318;-66
2024/04/24 12:47:33;;;;;;;10.90;7.35;;;;;;;;;;5352378;26;20008;-66
2024/04/24 12:49:59;;;;;;;9.40;8.20;;;;;;;;;;5383295;26;20007;-66
2024/04/24 12:52:25;;;;;;;12.98;9.63;;;;;;;;;;5383237;26;20008;-66
2024/04/24 12:54:51;;;;;;;13.10;9.40;;;;;;;;;;5352184;26;20319;-66
2024/04/24 12:57:16;;;;;;;12.48;9.57;;;;;;;;;;5378606;26;20047;-66
2024/04/24 12:59:41;;;;;;;10.02;7.95;;;;;;;;;;5379814;26;20010;-66
2024/04/24 13:02:08;;;;;;;10.60;9.40;;;;;;;;;;5349212;26;20000;-66
2024/04/24 13:04:34;;;;;;;10.90;9.55;;;;;;;;;;5379781;26;20000;-66
2024/04/24 13:06:59;;;;;;;13.98;8.68;;;;;;;;;;5348063;26;20462;-66
2024/04/24 13:09:24;;;;;;;11.00;9.82;;;;;;;;;;5378809;26;19992;-66
2024/04/24 13:11:51;;;;;;;13.13;8.00;;;;;;;;;;5347781;26;20011;-66
2024/04/24 13:14:16;;;;;;;9.38;7.88;;;;;;;;;;5378494;26;20000;-66
2024/04/24 13:16:42;;;;;;;15.50;10.77;;;;;;;;;;5378588;26;20038;-66
2024/04/24 13:19:07;;;;;;;12.60;9.75;;;;;;;;;;5382130;26;20000;-66
2024/04/24 13:21:33;;;;;;;23.02;15.57;;;;;;;;;;5382709;26;20004;-66
2024/04/24 13:23:58;;;;;;;12.63;10.25;;;;;;;;;;5382078;26;20078;-66
2024/04/24 13:26:25;;;;;;;14.75;10.35;;;;;;;;;;5382297;26;20065;-66
2024/04/24 13:28:50;;;;;;;10.85;8.45;;;;;;;;;;5381104;26;20042;-66
2024/04/24 13:31:16;;;;;;;21.92;16.67;;;;;;;;;;5380957;26;20000;-66
2024/04/24 13:33:41;;;;;;;13.32;9.98;;;;;;;;;;5380866;26;20019;-59
2024/04/24 13:36:06;;;;;;;10.13;8.45;;;;;;;;;;5380835;26;20465;-66
2024/04/24 13:38:32;;;;;;;9.77;8.55;;;;;;;;;;5380602;26;20012;-66
2024/04/24 13:41:03;;;;;;;11.32;8.15;;;;;;;;;;5380376;26;20074;-59
2024/04/24 13:43:29;;;;;;;16.77;10.98;;;;;;;;;;5381272;26;20455;-66
2024/04/24 13:45:54;;;;;;;13.15;9.95;;;;;;;;;;5380917;26;20075;-66
2024/04/24 13:48:20;;;;;;;13.02;9.60;;;;;;;;;;5380984;26;20005;-66
2024/04/24 13:50:45;;;;;;;12.35;9.27;;;;;;;;;;5380929;26;20439;-59
2024/04/24 13:53:11;;;;;;;10.43;8.20;;;;;;;;;;5381325;26;20015;-59
2024/04/24 13:55:36;;;;;;;10.13;8.23;;;;;;;;;;5381244;26;19999;-59
2024/04/24 13:58:02;;;;;;;10.65;8.35;;;;;;;;;;5381221;26;20003;-59
2024/04/24 14:00:27;;;;;;;9.25;8.00;;;;;;;;;;5381206;26;19996;-59
2024/04/24 14:02:52;;;;;;;12.10;9.10;;;;;;;;;;5381347;26;19996;-59
2024/04/24 14:05:21;;;;;;;9.27;7.90;;;;;;;;;;5350041;26;19992;-58
2024/04/24 14:07:46;;;;;;;10.95;9.85;;;;;;;;;;5382559;26;20077;-59
2024/04/24 14:10:12;;;;;;;12.77;9.80;;;;;;;;;;5381227;26;20438;-59
2024/04/24 14:12:37;;;;;;;14.30;10.10;;;;;;;;;;5381595;26;20392;-59
2024/04/24 14:15:03;;;;;;;11.20;9.55;;;;;;;;;;5381768;26;20330;-59
2024/04/24 14:17:29;;;;;;;12.55;10.05;;;;;;;;;;5381534;26;20066;-59
2024/04/24 14:19:55;;;;;;;11.13;10.02;;;;;;;;;;5350437;26;19997;-59
2024/04/24 14:22:20;;;;;;;13.23;9.43;;;;;;;;;;5381615;26;20000;-59